createdAt,value
2023-04-14T00:03:35.956Z,98157.16
2023-04-14T00:08:40.378Z,98154.44
2023-04-14T00:13:43.471Z,98149.03
2023-04-14T00:18:46.357Z,98154.97
2023-04-14T00:23:50.989Z,98158.59
2023-04-14T00:28:53.934Z,98155.94
2023-04-14T00:33:56.814Z,98156.72
2023-04-14T00:39:01.434Z,98149.13
2023-04-14T00:44:05.104Z,98149.69
2023-04-14T00:49:08.208Z,98150.13
2023-04-14T00:54:13.527Z,98147.38
2023-04-14T00:59:17.989Z,98147.44
2023-04-14T01:04:21.299Z,98151.59
2023-04-14T01:09:25.769Z,98143.44
2023-04-14T01:14:36.954Z,98157.16
2023-04-14T01:19:59.140Z,98159.91
2023-04-14T01:25:43.704Z,98161.94
2023-04-14T01:31:00.625Z,98161.81
2023-04-14T01:36:09.724Z,98157.53
2023-04-14T01:41:16.859Z,98160.09
2023-04-14T01:46:22.542Z,98170.75
2023-04-14T01:51:28.716Z,98178.13
2023-04-14T01:56:33.935Z,98169.72
2023-04-14T02:01:38.770Z,98156.09
2023-04-14T02:06:44.280Z,98156.22
2023-04-14T02:11:49.829Z,98155.09
2023-04-14T02:16:54.619Z,98140.19
2023-04-14T02:22:00.842Z,98136.50
2023-04-14T02:27:09.933Z,98133.81
2023-04-14T02:32:30.475Z,98135.69
2023-04-14T02:37:40.433Z,98126.88
2023-04-14T02:42:48.098Z,98143.06
2023-04-14T02:47:55.996Z,98140.72
2023-04-14T02:53:01.581Z,98143.31
2023-04-14T02:58:09.798Z,98146.13
2023-04-14T03:03:16.270Z,98142.63
2023-04-14T03:08:21.697Z,98139.84
2023-04-14T03:13:29.418Z,98148.56
2023-04-14T03:18:33.797Z,98150.16
2023-04-14T03:23:40.708Z,98147.81
2023-04-14T03:28:48.343Z,98144.66
2023-04-14T03:33:57.209Z,98155.09
2023-04-14T03:39:10.887Z,98154.38
2023-04-14T03:44:19.351Z,98152.81
2023-04-14T03:49:26.711Z,98145.97
2023-04-14T03:54:34.171Z,98133.44
2023-04-14T03:59:39.580Z,98141.78
2023-04-14T04:04:44.499Z,98125.97
2023-04-14T04:09:51.841Z,98132.78
2023-04-14T04:14:55.409Z,98118.47
2023-04-14T04:20:02.300Z,98104.78
2023-04-14T04:25:09.639Z,98104.00
2023-04-14T04:30:16.478Z,98103.38
2023-04-14T04:35:20.019Z,98115.97
2023-04-14T04:40:25.134Z,98110.97
2023-04-14T04:45:45.912Z,98130.41
2023-04-14T04:50:49.354Z,98135.50
2023-04-14T04:55:53.660Z,98153.16
2023-04-14T05:00:56.541Z,98150.69
2023-04-14T05:06:00.209Z,98164.31
2023-04-14T05:11:04.522Z,98173.41
2023-04-14T05:16:10.302Z,98174.91
2023-04-14T05:21:14.707Z,98169.97
2023-04-14T05:31:24.987Z,98172.75
2023-04-14T05:36:28.525Z,98164.66
2023-04-14T05:41:32.794Z,98160.16
2023-04-14T05:46:35.777Z,98179.34
2023-04-14T05:51:38.803Z,98159.81
2023-04-14T05:56:43.500Z,98168.72
2023-04-14T06:01:46.681Z,98164.03
2023-04-14T06:06:49.604Z,98162.47
2023-04-14T06:11:53.826Z,98153.75
2023-04-14T06:16:56.819Z,98149.56
2023-04-14T06:21:59.781Z,98147.81
2023-04-14T06:27:04.904Z,98152.53
2023-04-14T06:32:08.116Z,98150.69
2023-04-14T06:37:11.117Z,98144.41
2023-04-14T06:42:15.549Z,98133.78
2023-04-14T06:47:19.664Z,98133.31
2023-04-14T06:52:22.575Z,98134.94
2023-04-14T06:57:27.268Z,98128.28
2023-04-14T07:02:30.364Z,98124.00
2023-04-14T07:07:35.911Z,98126.66
2023-04-14T07:12:40.126Z,98118.72
2023-04-14T07:17:43.055Z,98118.22
2023-04-14T07:22:46.493Z,98120.66
2023-04-14T07:28:02.613Z,98120.94
2023-04-14T07:33:06.575Z,98124.53
2023-04-14T07:38:09.526Z,98130.56
2023-04-14T07:43:13.844Z,98138.84
2023-04-14T07:48:19.460Z,98138.38
2023-04-14T07:53:22.724Z,98150.13
2023-04-14T07:58:29.082Z,98150.63
2023-04-14T08:03:32.754Z,98144.91
2023-04-14T08:08:36.155Z,98136.56
2023-04-14T08:13:40.588Z,98143.00
2023-04-14T08:18:43.527Z,98134.44
2023-04-14T08:23:46.450Z,98131.13
2023-04-14T08:28:50.788Z,98129.66
2023-04-14T08:33:53.852Z,98133.63
2023-04-14T08:38:56.692Z,98122.00
2023-04-14T08:44:01.357Z,98141.16
2023-04-14T08:49:06.798Z,98132.44
2023-04-14T08:54:11.276Z,98129.66
2023-04-14T08:59:15.812Z,98118.53
2023-04-14T09:04:20.303Z,98116.31
2023-04-14T09:09:23.760Z,98124.97
2023-04-14T09:14:29.963Z,98120.53
2023-04-14T09:19:35.290Z,98128.13
2023-04-14T09:24:38.303Z,98114.97
2023-04-14T09:29:42.850Z,98120.81
2023-04-14T09:34:53.444Z,98124.78
2023-04-14T09:39:57.620Z,98124.31
2023-04-14T09:45:05.052Z,98127.00
2023-04-14T09:50:09.272Z,98137.00
2023-04-14T09:55:14.430Z,98127.84
2023-04-14T10:00:24.532Z,98126.34
2023-04-14T10:05:33.970Z,98123.66
2023-04-14T10:10:37.631Z,98104.41
2023-04-14T10:15:42.747Z,98110.94
2023-04-14T10:20:45.712Z,98107.94
2023-04-14T10:25:51.451Z,98096.84
2023-04-14T10:30:57.480Z,98102.31
2023-04-14T10:36:02.047Z,98099.59
2023-04-14T10:41:06.345Z,98099.84
2023-04-14T10:46:11.201Z,98099.00
2023-04-14T10:51:14.661Z,98101.28
2023-04-14T10:56:17.618Z,98097.47
2023-04-14T11:01:26.992Z,98093.50
2023-04-14T11:06:55.799Z,98096.47
2023-04-14T11:12:04.447Z,98076.75
2023-04-14T11:17:08.826Z,98077.38
2023-04-14T11:22:11.805Z,98070.53
2023-04-14T11:27:14.914Z,98069.59
2023-04-14T11:32:19.276Z,98068.81
2023-04-14T11:37:22.971Z,98062.59
2023-04-14T11:42:26.497Z,98053.00
2023-04-14T11:47:30.829Z,98046.81
2023-04-14T11:52:34.714Z,98051.19
2023-04-14T11:57:37.916Z,98035.16
2023-04-14T12:02:44.372Z,98039.50
2023-04-14T12:07:49.162Z,98031.75
2023-04-14T12:13:00.156Z,98028.00
2023-04-14T12:18:06.675Z,98033.03
2023-04-14T12:23:09.834Z,98031.81
2023-04-14T12:28:18.688Z,98027.22
2023-04-14T12:33:25.146Z,98013.34
2023-04-14T12:38:29.288Z,98016.38
2023-04-14T12:43:33.649Z,98009.03
2023-04-14T12:48:44.373Z,98008.41
2023-04-14T12:53:50.025Z,98006.16
2023-04-14T12:58:52.980Z,97998.56
2023-04-14T13:03:57.922Z,97990.88
2023-04-14T13:09:01.533Z,97999.09
2023-04-14T13:14:04.789Z,97991.59
2023-04-14T13:19:09.100Z,97993.09
2023-04-14T13:24:11.994Z,97984.28
2023-04-14T13:29:14.923Z,97976.75
2023-04-14T13:34:19.156Z,97977.66
2023-04-14T13:39:22.766Z,97979.53
2023-04-14T13:44:25.681Z,97978.56
2023-04-14T13:49:30.208Z,97980.41
2023-04-14T13:54:35.009Z,97975.75
2023-04-14T13:59:37.851Z,97973.84
2023-04-14T14:04:42.258Z,97978.22
2023-04-14T14:09:45.914Z,97973.53
2023-04-14T14:14:48.877Z,97975.69
2023-04-14T14:19:53.738Z,97974.66
2023-04-14T14:25:10.628Z,97984.72
2023-04-14T14:30:20.131Z,97975.59
2023-04-14T14:35:24.458Z,97978.72
2023-04-14T14:40:27.390Z,97992.28
2023-04-14T14:45:32.356Z,97983.34
2023-04-14T14:50:37.884Z,97989.50
2023-04-14T14:55:40.767Z,97984.22
2023-04-14T15:00:43.735Z,97991.69
2023-04-14T15:05:49.468Z,97992.25
2023-04-14T15:10:52.989Z,97990.81
2023-04-14T15:15:56.046Z,97989.31
2023-04-14T15:21:00.328Z,97997.56
2023-04-14T15:26:03.281Z,97995.91
2023-04-14T15:31:06.589Z,97999.81
2023-04-14T15:36:10.997Z,98000.44
2023-04-14T15:41:13.958Z,97997.34
2023-04-14T15:46:16.968Z,98000.97
2023-04-14T15:51:21.275Z,98002.41
2023-04-14T15:56:24.435Z,98008.34
2023-04-14T16:01:27.516Z,98008.72
2023-04-14T16:06:31.793Z,98010.38
2023-04-14T16:11:34.674Z,98019.09
2023-04-14T16:16:38.688Z,98010.09
2023-04-14T16:21:43.274Z,98006.03
2023-04-14T16:26:46.126Z,98002.13
2023-04-14T16:31:49.089Z,97997.34
2023-04-14T16:36:53.451Z,98000.25
2023-04-14T16:41:56.676Z,97999.66
2023-04-14T16:46:59.635Z,98005.59
2023-04-14T16:52:04.464Z,98001.69
2023-04-14T16:57:08.860Z,97997.53
2023-04-14T17:02:11.927Z,98001.25
2023-04-14T17:07:16.550Z,97997.47
2023-04-14T17:12:19.481Z,97999.63
2023-04-14T17:17:22.439Z,97999.16
2023-04-14T17:22:27.813Z,98001.56
2023-04-14T17:27:30.752Z,97989.22
2023-04-14T17:32:33.938Z,97996.53
2023-04-14T17:37:38.305Z,98003.84
2023-04-14T17:42:42.275Z,98007.72
2023-04-14T17:47:45.176Z,98002.75
2023-04-14T17:52:51.069Z,97999.94
2023-04-14T17:57:55.289Z,98003.53
2023-04-14T18:02:58.324Z,97999.50
2023-04-14T18:08:02.701Z,98003.53
2023-04-14T18:13:05.753Z,97998.22
2023-04-14T18:18:08.843Z,98009.97
2023-04-14T18:23:13.828Z,98009.00
2023-04-14T18:28:16.694Z,98014.25
2023-04-14T18:33:19.730Z,98008.25
2023-04-14T18:38:24.494Z,97994.91
2023-04-14T18:43:27.424Z,98006.50
2023-04-14T18:48:30.419Z,98007.72
2023-04-14T18:53:36.029Z,98004.56
2023-04-14T18:58:40.002Z,97998.22
2023-04-14T19:03:43.077Z,97998.78
2023-04-14T19:08:47.352Z,98004.13
2023-04-14T19:13:50.638Z,97997.13
2023-04-14T19:18:53.634Z,97996.09
2023-04-14T19:23:58.046Z,97986.22
2023-04-14T19:29:01.417Z,97988.28
2023-04-14T19:34:04.724Z,97985.44
2023-04-14T19:39:09.136Z,97985.44
2023-04-14T19:44:12.720Z,97984.84
2023-04-14T19:49:15.606Z,97982.50
2023-04-14T19:54:20.267Z,97977.59
2023-04-14T19:59:23.231Z,97975.31
2023-04-14T20:04:27.210Z,97973.34
2023-04-14T20:09:31.607Z,97975.59
2023-04-14T20:14:34.587Z,97969.16
2023-04-14T20:19:37.897Z,97969.38
2023-04-14T20:24:42.139Z,97964.81
2023-04-14T20:29:45.028Z,97959.53
2023-04-14T20:34:48.483Z,97958.75
2023-04-14T20:39:53.261Z,97945.44
2023-04-14T20:44:56.239Z,97943.06
2023-04-14T20:49:59.158Z,97945.38
2023-04-14T20:55:03.727Z,97939.69
2023-04-14T21:00:10.155Z,97932.16
2023-04-14T21:05:13.073Z,97926.72
2023-04-14T21:10:17.387Z,97928.44
2023-04-14T21:15:47.622Z,97932.44
2023-04-14T21:20:44.020Z,97931.03
2023-04-14T21:25:48.364Z,97932.81
2023-04-14T21:30:51.530Z,97934.78
2023-04-14T21:35:55.449Z,97932.69
2023-04-14T21:40:59.686Z,97932.16
2023-04-14T21:46:03.500Z,97926.28
2023-04-14T21:51:06.460Z,97928.41
2023-04-14T21:56:12.895Z,97925.50
2023-04-14T22:01:15.913Z,97921.06
2023-04-14T22:06:19.966Z,97918.31
2023-04-14T22:11:24.275Z,97924.16
2023-04-14T22:16:28.681Z,97915.47
2023-04-14T22:21:32.071Z,97909.53
2023-04-14T22:26:36.421Z,97909.44
2023-04-14T22:31:39.328Z,97905.34
2023-04-14T22:36:42.227Z,97902.03
2023-04-14T22:41:49.602Z,97894.34
2023-04-14T22:46:52.517Z,97887.94
2023-04-14T22:51:55.416Z,97890.28
2023-04-14T22:56:59.806Z,97890.78
2023-04-14T23:02:02.844Z,97889.84
2023-04-14T23:07:06.142Z,97887.22
2023-04-14T23:12:10.473Z,97883.47
2023-04-14T23:17:13.458Z,97879.00
2023-04-14T23:22:16.359Z,97875.72
2023-04-14T23:27:20.664Z,97867.47
2023-04-14T23:32:23.607Z,97863.75
2023-04-14T23:37:26.536Z,97860.78
2023-04-14T23:42:30.789Z,97859.59
2023-04-14T23:47:33.771Z,97857.78
2023-04-14T23:52:37.049Z,97854.09
2023-04-14T23:57:41.806Z,97853.53
